Time;durP1;ratioP1;P1;durP2;ratioP2;P2;SDS_P1;SDS_P2;PMS_P1;PMS_P2;Temp;Humidity;BMP_temperature;BMP_pressure;BME280_temperature;BME280_humidity;BME280_pressure;Samples;Min_cycle;Max_cycle;Signal;HPM_P1;HPM_P2
2022/09/24 00:00:44;;;;;;;1999.90;999.90;;;13.50;99.90;;;;;;5019924;28;20081;-65
2022/09/24 00:03:10;;;;;;;1999.90;999.90;;;13.50;99.90;;;;;;5018307;28;20048;-65
2022/09/24 00:05:40;;;;;;;1999.90;999.90;;;13.50;99.90;;;;;;5016462;28;20058;-65
2022/09/24 00:08:07;;;;;;;1999.90;999.90;;;13.50;99.90;;;;;;5018086;28;20501;-65
2022/09/24 00:10:38;;;;;;;1999.90;999.90;;;13.50;99.90;;;;;;4999569;28;20502;-65
2022/09/24 00:13:04;;;;;;;1999.90;999.90;;;13.50;99.90;;;;;;5018704;28;20061;-65
2022/09/24 00:15:30;;;;;;;1999.90;999.90;;;13.50;99.90;;;;;;5017957;28;20041;-65
2022/09/24 00:17:56;;;;;;;1999.90;999.90;;;13.40;99.90;;;;;;5015679;28;20042;-65
2022/09/24 00:20:21;;;;;;;1999.90;999.90;;;13.50;99.90;;;;;;5029511;28;20037;-65
2022/09/24 00:22:47;;;;;;;1999.90;999.90;;;13.40;99.90;;;;;;5017957;28;20049;-65
2022/09/24 00:27:56;;;;;;;1999.90;999.90;;;13.50;99.90;;;;;;5031604;28;20045;-65
2022/09/24 00:30:22;;;;;;;1999.90;999.90;;;13.50;99.90;;;;;;5013538;28;20121;-65
2022/09/24 00:32:48;;;;;;;1999.90;999.90;;;13.50;99.90;;;;;;5038663;28;20042;-65
2022/09/24 00:35:13;;;;;;;1999.90;999.90;;;13.50;99.90;;;;;;5012317;28;20809;-65
2022/09/24 00:37:39;;;;;;;1999.90;999.90;;;13.50;99.90;;;;;;5017367;28;20445;-65
2022/09/24 00:40:05;;;;;;;1999.90;999.90;;;13.50;99.90;;;;;;5017196;28;20048;-65
2022/09/24 00:42:31;;;;;;;1999.90;999.90;;;13.40;99.90;;;;;;5025382;28;20045;-65
2022/09/24 00:44:57;;;;;;;1999.90;999.90;;;13.50;99.90;;;;;;5028346;28;20509;-65
2022/09/24 00:47:26;;;;;;;1999.90;999.90;;;13.50;99.90;;;;;;5021976;28;20041;-65
2022/09/24 00:49:57;;;;;;;1999.90;999.90;;;13.50;99.90;;;;;;5026639;28;20131;-65
2022/09/24 00:52:23;;;;;;;1999.90;999.90;;;13.50;99.90;;;;;;5012218;28;20453;-65
2022/09/24 00:54:49;;;;;;;1999.90;999.90;;;13.50;99.90;;;;;;5016084;28;20077;-65
2022/09/24 00:57:15;;;;;;;1999.90;999.90;;;13.50;99.90;;;;;;5008880;28;20124;-65
2022/09/24 00:59:41;;;;;;;1999.90;999.90;;;13.60;99.90;;;;;;5018384;28;20465;-65
2022/09/24 01:02:07;;;;;;;1999.90;999.90;;;13.60;99.90;;;;;;5020051;28;20043;-65
2022/09/24 01:04:33;;;;;;;1999.90;999.90;;;13.60;99.90;;;;;;5023463;28;20124;-65
2022/09/24 01:06:58;;;;;;;1999.90;999.90;;;13.60;99.90;;;;;;5016656;28;20045;-65
2022/09/24 01:09:26;;;;;;;1999.90;999.90;;;13.60;99.90;;;;;;5016654;28;20198;-65
2022/09/24 01:12:02;;;;;;;1999.90;999.90;;;13.60;99.90;;;;;;5017757;28;20087;-65
2022/09/24 01:14:42;;;;;;;1999.90;999.90;;;13.60;99.90;;;;;;5018691;28;20091;-65
2022/09/24 01:17:31;;;;;;;1999.90;999.90;;;13.70;99.90;;;;;;5019190;28;20095;-65
2022/09/24 01:20:18;;;;;;;1999.90;999.90;;;13.70;99.90;;;;;;5020242;28;20099;-65
2022/09/24 01:23:02;;;;;;;1999.90;999.90;;;13.70;99.90;;;;;;5012822;28;20046;-65
2022/09/24 01:25:58;;;;;;;1999.90;999.90;;;13.60;99.90;;;;;;5017743;28;20041;-65
2022/09/24 01:28:36;;;;;;;1999.90;999.90;;;13.70;99.90;;;;;;5024224;28;20052;-65
2022/09/24 01:31:15;;;;;;;1999.90;999.90;;;13.70;99.90;;;;;;5011460;28;20144;-65
2022/09/24 01:33:44;;;;;;;1999.90;999.90;;;13.70;99.90;;;;;;5023016;28;20144;-65
2022/09/24 01:36:11;;;;;;;1999.90;999.90;;;13.70;99.90;;;;;;5009982;28;20088;-65
2022/09/24 01:38:41;;;;;;;1999.90;999.90;;;13.70;99.90;;;;;;5010589;28;20124;-65
2022/09/24 01:41:09;;;;;;;1999.90;999.90;;;13.70;99.90;;;;;;5012096;28;20046;-65
2022/09/24 01:43:35;;;;;;;1999.90;999.90;;;13.70;99.90;;;;;;5015035;28;20042;-65
2022/09/24 01:46:04;;;;;;;1999.90;999.90;;;13.70;99.90;;;;;;5021021;28;20042;-65
2022/09/24 01:48:32;;;;;;;1999.90;999.90;;;13.70;99.90;;;;;;5016527;28;20103;-65
2022/09/24 01:51:23;;;;;;;1999.90;999.90;;;13.80;99.90;;;;;;5023276;28;20050;-65
2022/09/24 01:54:04;;;;;;;1999.90;999.90;;;13.80;99.90;;;;;;5015891;28;20048;-65
2022/09/24 01:56:37;;;;;;;1999.90;999.90;;;13.80;99.90;;;;;;5011877;28;20046;-65
2022/09/24 01:59:13;;;;;;;1999.90;999.90;;;13.70;99.90;;;;;;5022320;28;20157;-65
2022/09/24 02:01:57;;;;;;;1999.90;999.90;;;13.80;99.90;;;;;;5026786;28;20049;-65
2022/09/24 02:04:26;;;;;;;1999.90;999.90;;;13.80;99.90;;;;;;5012132;28;20071;-65
2022/09/24 02:07:07;;;;;;;1999.90;999.90;;;13.80;99.90;;;;;;5014817;28;20132;-65
2022/09/24 02:09:36;;;;;;;1999.90;999.90;;;13.80;99.90;;;;;;5010375;28;20049;-65
2022/09/24 02:12:10;;;;;;;1999.90;999.90;;;13.80;99.90;;;;;;5013046;28;20053;-65
2022/09/24 02:14:43;;;;;;;1999.90;999.90;;;13.80;99.90;;;;;;5008796;28;20492;-66
2022/09/24 02:17:10;;;;;;;1999.90;999.90;;;13.80;99.90;;;;;;5011938;28;20037;-65
2022/09/24 02:19:38;;;;;;;1999.90;999.90;;;13.80;99.90;;;;;;5016237;28;20084;-65
2022/09/24 02:22:06;;;;;;;1999.90;999.90;;;13.80;99.90;;;;;;5011775;28;20065;-65
2022/09/24 02:24:43;;;;;;;1999.90;999.90;;;13.80;99.90;;;;;;5020116;28;20473;-65
2022/09/24 02:27:09;;;;;;;1999.90;999.90;;;13.70;99.90;;;;;;5021228;28;20053;-65
2022/09/24 02:29:34;;;;;;;1999.90;999.90;;;13.70;99.90;;;;;;5017477;28;20119;-65
2022/09/24 02:32:02;;;;;;;1999.90;999.90;;;13.70;99.90;;;;;;5035999;28;20052;-65
2022/09/24 02:34:37;;;;;;;1999.90;999.90;;;13.70;99.90;;;;;;5016130;28;20099;-65
2022/09/24 02:37:05;;;;;;;1999.90;999.90;;;13.60;99.90;;;;;;5021662;28;20068;-65
2022/09/24 02:39:30;;;;;;;1999.90;999.90;;;13.60;99.90;;;;;;5016273;28;20048;-66
2022/09/24 02:41:57;;;;;;;1999.90;999.90;;;13.60;99.90;;;;;;5018153;28;20037;-66
2022/09/24 02:44:23;;;;;;;1999.90;999.90;;;13.60;99.90;;;;;;5015684;28;20730;-66
2022/09/24 02:46:49;;;;;;;1999.90;999.90;;;13.60;99.90;;;;;;5026334;28;20052;-66
2022/09/24 02:49:15;;;;;;;1999.90;999.90;;;13.60;99.90;;;;;;5039238;28;20503;-66
2022/09/24 02:51:41;;;;;;;1999.90;999.90;;;13.60;99.90;;;;;;5009875;28;20050;-66
2022/09/24 02:54:08;;;;;;;1999.90;999.90;;;13.60;99.90;;;;;;5028445;28;20040;-66
2022/09/24 02:56:34;;;;;;;1999.90;999.90;;;13.70;99.90;;;;;;5029497;28;20042;-66
2022/09/24 02:59:01;;;;;;;1999.90;999.90;;;13.60;99.90;;;;;;5005436;28;20046;-67
2022/09/24 03:01:28;;;;;;;1999.90;999.90;;;13.60;99.90;;;;;;5020946;28;20095;-67
2022/09/24 03:03:53;;;;;;;1999.90;999.90;;;13.60;99.90;;;;;;5037107;28;20049;-67
2022/09/24 03:06:19;;;;;;;1999.90;999.90;;;13.70;99.90;;;;;;5025174;28;20519;-67
2022/09/24 03:08:45;;;;;;;1999.90;999.90;;;13.70;99.90;;;;;;5020211;28;20053;-67
2022/09/24 03:11:12;;;;;;;1999.90;999.90;;;13.70;99.90;;;;;;5021875;28;20438;-67
2022/09/24 03:13:39;;;;;;;1999.90;999.90;;;13.70;99.90;;;;;;5031429;28;20063;-66
2022/09/24 03:16:06;;;;;;;1999.90;999.90;;;13.70;99.90;;;;;;5018236;28;20042;-66
2022/09/24 03:18:32;;;;;;;1999.90;999.90;;;13.70;99.90;;;;;;5019480;28;20124;-66
2022/09/24 03:21:03;;;;;;;1999.90;999.90;;;13.70;99.90;;;;;;5007602;28;20405;-66
2022/09/24 03:23:28;;;;;;;1999.90;999.90;;;13.70;99.90;;;;;;5024898;28;20053;-66
2022/09/24 03:25:54;;;;;;;1999.90;999.90;;;13.60;99.90;;;;;;5039343;28;20050;-66
2022/09/24 03:28:20;;;;;;;1999.90;999.90;;;13.60;99.90;;;;;;5024460;28;20125;-66
2022/09/24 03:31:01;;;;;;;1999.90;999.90;;;13.60;99.90;;;;;;5027692;28;20057;-66
2022/09/24 03:33:27;;;;;;;1999.90;999.90;;;13.60;99.90;;;;;;5027699;28;20132;-66
2022/09/24 03:36:01;;;;;;;1999.90;999.90;;;13.60;99.90;;;;;;5024501;28;20132;-66
2022/09/24 03:38:28;;;;;;;1999.90;999.90;;;13.50;99.90;;;;;;5030310;28;20171;-66
2022/09/24 03:40:55;;;;;;;1999.90;999.90;;;13.60;99.90;;;;;;5025897;28;20037;-66
2022/09/24 03:43:22;;;;;;;1999.90;999.90;;;13.60;99.90;;;;;;5030537;28;20045;-66
2022/09/24 03:45:48;;;;;;;1999.90;999.90;;;13.60;99.90;;;;;;5027113;28;20044;-66
2022/09/24 03:48:15;;;;;;;1999.90;999.90;;;13.60;99.90;;;;;;5029658;28;20398;-66
2022/09/24 03:50:41;;;;;;;1999.90;999.90;;;13.60;99.90;;;;;;5028481;28;20769;-66
2022/09/24 03:53:06;;;;;;;1999.90;999.90;;;13.50;99.90;;;;;;5028981;28;20046;-66
2022/09/24 03:55:32;;;;;;;1999.90;999.90;;;13.60;99.90;;;;;;5027629;28;20042;-66
2022/09/24 03:57:58;;;;;;;1999.90;999.90;;;13.60;99.90;;;;;;5028133;28;20334;-66
2022/09/24 04:00:23;;;;;;;1999.90;999.90;;;13.60;99.90;;;;;;5026310;28;20041;-66
2022/09/24 04:02:50;;;;;;;1999.90;999.90;;;13.60;99.90;;;;;;5028272;28;20030;-66
2022/09/24 04:05:16;;;;;;;1999.90;999.90;;;13.50;99.90;;;;;;5044521;28;20049;-66
2022/09/24 04:07:42;;;;;;;1999.90;999.90;;;13.50;99.90;;;;;;5028750;28;20494;-66
2022/09/24 04:10:08;;;;;;;1999.90;999.90;;;13.60;99.90;;;;;;5025597;28;20438;-66
2022/09/24 04:12:34;;;;;;;1999.90;999.90;;;13.50;99.90;;;;;;5027903;28;20162;-66
2022/09/24 04:15:01;;;;;;;1999.90;999.90;;;13.60;99.90;;;;;;5027192;28;20179;-66
2022/09/24 04:17:30;;;;;;;1999.90;999.90;;;13.60;99.90;;;;;;5027252;28;20160;-66
2022/09/24 04:19:57;;;;;;;1999.90;999.90;;;13.60;99.90;;;;;;5022985;28;20053;-66
2022/09/24 04:22:23;;;;;;;1999.90;999.90;;;13.60;99.90;;;;;;5024671;28;20042;-66
2022/09/24 04:24:50;;;;;;;1999.90;999.90;;;13.60;99.90;;;;;;5025042;28;20060;-66
2022/09/24 04:27:15;;;;;;;1999.90;999.90;;;13.60;99.90;;;;;;5014389;28;20046;-66
2022/09/24 04:29:41;;;;;;;1999.90;999.90;;;13.60;99.90;;;;;;5038321;28;20056;-66
2022/09/24 04:32:07;;;;;;;1999.90;999.90;;;13.60;99.90;;;;;;5023454;28;20161;-66
2022/09/24 04:34:32;;;;;;;1999.90;999.90;;;13.60;99.90;;;;;;5056906;28;20053;-66
2022/09/24 04:36:58;;;;;;;1999.90;999.90;;;13.60;99.90;;;;;;5032363;28;20116;-66
2022/09/24 04:39:26;;;;;;;1999.90;999.90;;;13.60;99.90;;;;;;5010481;28;20084;-66
2022/09/24 04:41:55;;;;;;;1999.90;999.90;;;13.60;99.90;;;;;;5019579;28;20049;-66
2022/09/24 04:44:21;;;;;;;1999.90;999.90;;;13.60;99.90;;;;;;5025273;28;20045;-66
2022/09/24 04:46:47;;;;;;;1999.90;999.90;;;13.60;99.90;;;;;;5026974;28;20049;-66
2022/09/24 04:49:13;;;;;;;1999.90;999.90;;;13.60;99.90;;;;;;5012539;28;20097;-66
2022/09/24 04:51:38;;;;;;;1999.90;999.90;;;13.60;99.90;;;;;;5026173;28;20489;-66
2022/09/24 04:54:04;;;;;;;1999.90;999.90;;;13.60;99.90;;;;;;5004744;28;20037;-67
2022/09/24 04:56:31;;;;;;;1999.90;999.90;;;13.60;99.90;;;;;;5019213;28;20041;-66
2022/09/24 04:58:57;;;;;;;1999.90;999.90;;;13.60;99.90;;;;;;5018857;28;20077;-66
2022/09/24 05:01:23;;;;;;;1999.90;999.90;;;13.60;99.90;;;;;;5023706;28;20053;-66
2022/09/24 05:03:49;;;;;;;1999.90;999.90;;;13.60;99.90;;;;;;5010141;28;20067;-66
2022/09/24 05:06:15;;;;;;;1999.90;999.90;;;13.60;99.90;;;;;;5025932;28;20075;-66
2022/09/24 05:08:41;;;;;;;1999.90;999.90;;;13.50;99.90;;;;;;5029750;28;20065;-66
2022/09/24 05:11:06;;;;;;;1999.90;999.90;;;13.50;99.90;;;;;;5025429;28;20468;-66
2022/09/24 05:13:34;;;;;;;1999.90;999.90;;;13.40;99.90;;;;;;5024322;28;20042;-66
2022/09/24 05:15:59;;;;;;;1999.90;999.90;;;13.40;99.90;;;;;;5026400;28;20440;-66
2022/09/24 05:18:26;;;;;;;1999.90;999.90;;;13.40;99.90;;;;;;5026401;28;20045;-66
2022/09/24 05:20:51;;;;;;;1999.90;999.90;;;13.40;99.90;;;;;;5024914;28;20038;-66
2022/09/24 05:23:17;;;;;;;1999.90;999.90;;;13.40;99.90;;;;;;5007963;28;20053;-66
2022/09/24 05:28:27;;;;;;;1999.90;999.90;;;13.40;99.90;;;;;;5024848;28;20049;-66
2022/09/24 05:30:57;;;;;;;1999.90;999.90;;;13.30;99.90;;;;;;5027010;28;20107;-66
2022/09/24 05:33:23;;;;;;;1999.90;999.90;;;13.30;99.90;;;;;;5026514;28;20084;-66
2022/09/24 05:35:56;;;;;;;1999.90;999.90;;;13.30;99.90;;;;;;5025428;28;20065;-66
2022/09/24 05:38:23;;;;;;;1999.90;999.90;;;13.30;99.90;;;;;;5022863;28;20540;-66
2022/09/24 05:40:49;;;;;;;1999.90;999.90;;;13.30;99.90;;;;;;5025099;28;20037;-66
2022/09/24 05:43:15;;;;;;;1999.90;999.90;;;13.30;99.90;;;;;;5025713;28;20095;-66
2022/09/24 05:45:43;;;;;;;1999.90;999.90;;;13.30;99.90;;;;;;5007877;28;20046;-66
2022/09/24 05:48:10;;;;;;;1999.90;999.90;;;13.30;99.90;;;;;;5030276;28;20375;-66
2022/09/24 05:50:35;;;;;;;1999.90;999.90;;;13.30;99.90;;;;;;5018425;28;20103;-66
2022/09/24 05:53:02;;;;;;;1999.90;999.90;;;13.20;99.90;;;;;;5020179;28;20049;-66
2022/09/24 05:55:28;;;;;;;1999.90;999.90;;;13.20;99.90;;;;;;5026858;28;20107;-66
2022/09/24 05:57:53;;;;;;;1999.90;999.90;;;13.30;99.90;;;;;;5021057;28;20037;-66
2022/09/24 06:00:19;;;;;;;1999.90;999.90;;;13.20;99.90;;;;;;5008634;28;20069;-66
2022/09/24 06:02:45;;;;;;;1999.90;999.90;;;13.20;99.90;;;;;;5019054;28;20164;-66
2022/09/24 06:05:11;;;;;;;1999.90;999.90;;;13.20;99.90;;;;;;5016125;28;20041;-66
2022/09/24 06:07:37;;;;;;;1999.90;999.90;;;13.20;99.90;;;;;;5013586;28;20045;-66
2022/09/24 06:10:04;;;;;;;1999.90;999.90;;;13.20;99.90;;;;;;5016723;28;20055;-66
2022/09/24 06:12:32;;;;;;;1999.90;999.90;;;13.20;99.90;;;;;;5016634;28;20096;-66
2022/09/24 06:14:58;;;;;;;1999.90;999.90;;;13.20;99.90;;;;;;5010501;28;20049;-66
2022/09/24 06:17:24;;;;;;;1999.90;999.90;;;13.20;99.90;;;;;;5011235;28;20045;-66
2022/09/24 06:19:50;;;;;;;1999.90;999.90;;;13.20;99.90;;;;;;5012314;28;20048;-66
2022/09/24 06:22:16;;;;;;;1999.90;999.90;;;13.20;99.90;;;;;;5011244;28;20122;-66
2022/09/24 06:24:42;;;;;;;1999.90;999.90;;;13.20;99.90;;;;;;5012308;28;20506;-66
2022/09/24 06:27:07;;;;;;;1999.90;999.90;;;13.20;99.90;;;;;;5010122;28;20037;-66
2022/09/24 06:29:33;;;;;;;1999.90;999.90;;;13.20;99.90;;;;;;5019398;28;20046;-66
2022/09/24 06:32:00;;;;;;;1999.90;999.90;;;13.20;99.90;;;;;;5015908;28;20136;-66
2022/09/24 06:34:26;;;;;;;1999.90;999.90;;;13.30;99.90;;;;;;5035997;28;20041;-66
2022/09/24 06:36:55;;;;;;;1999.90;999.90;;;13.30;99.90;;;;;;5029376;28;20050;-66
2022/09/24 06:39:25;;;;;;;1999.90;999.90;;;13.30;99.90;;;;;;5027191;28;20065;-67
2022/09/24 06:41:51;;;;;;;1999.90;999.90;;;13.40;99.90;;;;;;5025209;28;20041;-66
2022/09/24 06:44:18;;;;;;;1999.90;999.90;;;13.30;99.90;;;;;;5026100;28;20049;-66
2022/09/24 06:46:44;;;;;;;1999.90;999.90;;;13.40;99.90;;;;;;5023181;28;20385;-66
2022/09/24 06:49:10;;;;;;;1999.90;999.90;;;13.40;99.90;;;;;;5031752;28;20142;-66
2022/09/24 06:51:35;;;;;;;1999.90;999.90;;;13.40;99.90;;;;;;5023231;28;20045;-66
2022/09/24 06:54:01;;;;;;;1999.90;999.90;;;13.40;99.90;;;;;;5003399;28;20034;-66
2022/09/24 06:56:29;;;;;;;1999.90;999.90;;;13.50;99.90;;;;;;5020349;28;20047;-66
2022/09/24 06:58:55;;;;;;;1999.90;999.90;;;13.50;99.90;;;;;;5015660;28;20049;-66
2022/09/24 07:01:21;;;;;;;1999.90;999.90;;;13.50;99.90;;;;;;5030337;28;20175;-66
2022/09/24 07:03:46;;;;;;;1999.90;999.90;;;13.50;99.90;;;;;;5016399;28;20517;-66
2022/09/24 07:06:12;;;;;;;1999.90;999.90;;;13.50;99.90;;;;;;5026625;28;20048;-66
2022/09/24 07:08:38;;;;;;;1999.90;999.90;;;13.60;99.90;;;;;;5024570;28;20049;-66
2022/09/24 07:11:03;;;;;;;1999.90;999.90;;;13.60;99.90;;;;;;5034049;28;20041;-66
2022/09/24 07:13:29;;;;;;;1999.90;999.90;;;13.70;99.90;;;;;;5022865;28;20044;-66
2022/09/24 07:15:55;;;;;;;1999.90;999.90;;;13.70;99.90;;;;;;5022386;28;20049;-66
2022/09/24 07:18:20;;;;;;;1999.90;999.90;;;13.70;99.90;;;;;;5019564;28;20041;-66
2022/09/24 07:20:54;;;;;;;1999.90;999.90;;;13.80;99.90;;;;;;5006059;28;20034;-66
2022/09/24 07:23:20;;;;;;;1999.90;999.90;;;13.80;99.90;;;;;;5024255;28;20151;-66
2022/09/24 07:25:46;;;;;;;1999.90;999.90;;;13.80;99.90;;;;;;5031141;28;20393;-66
2022/09/24 07:28:12;;;;;;;1999.90;999.90;;;13.80;99.90;;;;;;5023987;28;20046;-66
2022/09/24 07:30:39;;;;;;;1999.90;999.90;;;13.90;99.90;;;;;;5018623;28;20389;-66
2022/09/24 07:33:06;;;;;;;1999.90;999.90;;;13.90;99.90;;;;;;5017343;28;20076;-66
2022/09/24 07:35:31;;;;;;;1999.90;999.90;;;13.90;99.90;;;;;;4998606;28;20208;-66
2022/09/24 07:38:02;;;;;;;1999.90;999.90;;;13.90;99.90;;;;;;5010461;28;20807;-66
2022/09/24 07:40:29;;;;;;;1999.90;999.90;;;13.90;99.90;;;;;;5009468;28;20042;-66
2022/09/24 07:42:55;;;;;;;1999.90;999.90;;;14.00;99.90;;;;;;5023997;28;20091;-66
2022/09/24 07:45:22;;;;;;;1999.90;999.90;;;14.00;99.90;;;;;;5021751;28;20040;-66
2022/09/24 07:47:56;;;;;;;1999.90;999.90;;;14.10;99.90;;;;;;5024145;28;20045;-66
2022/09/24 07:50:21;;;;;;;1999.90;999.90;;;14.20;99.90;;;;;;5006714;28;20042;-66
2022/09/24 07:52:50;;;;;;;1999.90;999.90;;;14.20;99.90;;;;;;5021004;28;20053;-66
2022/09/24 07:55:17;;;;;;;1999.90;999.90;;;14.20;99.90;;;;;;5024524;28;20073;-66
2022/09/24 07:57:51;;;;;;;1999.90;999.90;;;14.20;99.90;;;;;;5021639;28;20125;-66
2022/09/24 08:00:18;;;;;;;1999.90;999.90;;;14.10;99.90;;;;;;5022644;28;20178;-66
2022/09/24 08:02:44;;;;;;;1999.90;999.90;;;14.10;99.90;;;;;;5024157;28;20367;-66
2022/09/24 08:05:11;;;;;;;1999.90;999.90;;;14.00;99.90;;;;;;5011082;28;20563;-66
2022/09/24 08:07:36;;;;;;;1999.90;999.90;;;14.00;99.90;;;;;;5025939;28;20048;-66
2022/09/24 08:10:02;;;;;;;1999.90;999.90;;;14.00;99.90;;;;;;5024941;28;20021;-66
2022/09/24 08:12:27;;;;;;;1999.90;999.90;;;13.90;99.90;;;;;;5010847;28;20068;-66
2022/09/24 08:14:53;;;;;;;1999.90;999.90;;;13.90;99.90;;;;;;5024642;28;20045;-66
2022/09/24 08:17:19;;;;;;;1999.90;999.90;;;13.90;99.90;;;;;;5028355;28;20410;-66
2022/09/24 08:19:45;;;;;;;1999.90;999.90;;;13.90;99.90;;;;;;5027338;28;20037;-66
2022/09/24 08:22:13;;;;;;;1999.90;999.90;;;13.90;99.90;;;;;;5026834;28;20108;-66
2022/09/24 08:24:40;;;;;;;1999.90;999.90;;;13.90;99.90;;;;;;5026663;28;20135;-66
2022/09/24 08:27:06;;;;;;;1999.90;999.90;;;14.00;99.90;;;;;;5019886;28;20052;-66
2022/09/24 08:29:33;;;;;;;1999.90;999.90;;;13.90;99.90;;;;;;5026145;28;20076;-66
2022/09/24 08:31:59;;;;;;;1999.90;999.90;;;14.00;99.90;;;;;;5037143;28;20057;-66
2022/09/24 08:34:25;;;;;;;1999.90;999.90;;;13.90;99.90;;;;;;5024924;28;20470;-66
2022/09/24 08:36:50;;;;;;;1999.90;999.90;;;14.00;99.90;;;;;;5024484;28;20068;-66
2022/09/24 08:39:16;;;;;;;1999.90;999.90;;;14.00;99.90;;;;;;5022782;28;20059;-65
2022/09/24 08:41:59;;;;;;;1999.90;999.90;;;14.00;99.90;;;;;;5022538;28;20122;-66
2022/09/24 08:47:31;;;;;;;1999.90;999.90;;;14.00;99.90;;;;;;5024956;28;20045;-66
2022/09/24 08:50:14;;;;;;;1999.90;999.90;;;14.00;99.90;;;;;;5043041;28;20148;-66
2022/09/24 08:52:46;;;;;;;1999.90;999.90;;;14.00;99.90;;;;;;5036456;28;20056;-66
2022/09/24 08:55:20;;;;;;;1999.90;999.90;;;14.00;99.90;;;;;;5025765;28;20041;-66
2022/09/24 08:57:54;;;;;;;1999.90;999.90;;;14.00;99.90;;;;;;5025405;28;20124;-66
2022/09/24 09:00:20;;;;;;;1999.90;999.90;;;14.10;99.90;;;;;;5005703;28;20406;-66
2022/09/24 09:03:08;;;;;;;1999.90;999.90;;;14.10;99.90;;;;;;5024719;28;20056;-66
2022/09/24 09:06:33;;;;;;;1999.90;999.90;;;14.20;99.90;;;;;;5019200;28;20037;-66
2022/09/24 09:09:08;;;;;;;1999.90;999.90;;;14.10;99.90;;;;;;4972650;28;20070;-65
2022/09/24 09:11:36;;;;;;;1999.90;999.90;;;14.10;99.90;;;;;;4963348;28;20050;-65
2022/09/24 09:14:19;;;;;;;1999.90;999.90;;;14.20;99.90;;;;;;4943555;28;20153;-65
2022/09/24 09:17:05;;;;;;;1999.90;999.90;;;14.20;99.90;;;;;;4964505;28;20271;-66
2022/09/24 09:19:35;;;;;;;1999.90;999.90;;;14.20;99.90;;;;;;4966043;28;20054;-66
2022/09/24 09:22:13;;;;;;;1999.90;999.90;;;14.30;99.90;;;;;;4964188;28;20082;-66
2022/09/24 09:24:47;;;;;;;1999.90;999.90;;;14.30;99.90;;;;;;4954129;28;20047;-66
2022/09/24 09:27:15;;;;;;;1999.90;999.90;;;14.40;99.90;;;;;;4947734;28;20527;-66
2022/09/24 09:29:47;;;;;;;1999.90;999.90;;;14.50;99.90;;;;;;4958036;28;20051;-65
2022/09/24 09:32:41;;;;;;;1999.90;999.90;;;14.60;99.90;;;;;;4953660;28;21595;-66
2022/09/24 09:35:48;;;;;;;1999.90;999.90;;;14.60;99.90;;;;;;4938126;28;20067;-66
2022/09/24 09:38:23;;;;;;;1999.90;999.90;;;14.70;99.90;;;;;;4962298;28;20038;-65
2022/09/24 09:41:05;;;;;;;1999.90;999.90;;;14.70;99.90;;;;;;5023015;28;20049;-65
2022/09/24 09:43:31;;;;;;;1999.90;999.90;;;14.70;99.90;;;;;;5020469;28;20049;-65
2022/09/24 09:46:08;;;;;;;1999.90;999.90;;;14.70;99.90;;;;;;5020723;28;20056;-66
2022/09/24 09:48:43;;;;;;;1999.90;999.90;;;14.70;99.90;;;;;;5009916;28;20488;-65
2022/09/24 09:51:18;;;;;;;1999.90;999.90;;;14.70;99.90;;;;;;5028442;28;20053;-65
2022/09/24 09:54:00;;;;;;;1999.90;999.90;;;14.60;99.90;;;;;;5013022;28;20045;-65
2022/09/24 09:56:40;;;;;;;1999.90;999.90;;;14.60;99.90;;;;;;5023478;28;20037;-65
2022/09/24 09:59:08;;;;;;;1999.90;999.90;;;14.60;99.90;;;;;;5022517;28;20397;-66
2022/09/24 10:01:36;;;;;;;1999.90;999.90;;;14.70;99.90;;;;;;5022742;28;20045;-65
2022/09/24 10:04:03;;;;;;;1999.90;999.90;;;14.80;99.90;;;;;;5032412;28;20060;-65
2022/09/24 10:06:34;;;;;;;1999.90;999.90;;;14.80;99.90;;;;;;4994546;28;20046;-66
2022/09/24 10:09:12;;;;;;;1999.90;999.90;;;14.90;99.90;;;;;;5008485;28;20057;-65
2022/09/24 10:11:38;;;;;;;1999.90;999.90;;;15.00;99.90;;;;;;5051689;28;20403;-65
2022/09/24 10:14:08;;;;;;;1999.90;999.90;;;15.00;99.90;;;;;;5017877;28;20104;-65
2022/09/24 10:16:54;;;;;;;1999.90;999.90;;;14.90;99.90;;;;;;5020018;28;20045;-65
2022/09/24 10:19:25;;;;;;;1999.90;999.90;;;15.00;99.90;;;;;;5027642;28;20053;-65
2022/09/24 10:21:52;;;;;;;1999.90;999.90;;;15.00;99.90;;;;;;5016060;28;20428;-66
2022/09/24 10:24:21;;;;;;;1999.90;999.90;;;14.90;99.90;;;;;;5021547;28;20042;-66
2022/09/24 10:26:48;;;;;;;1999.90;999.90;;;14.80;99.90;;;;;;5023195;28;20060;-66
2022/09/24 10:32:12;;;;;;;1999.90;999.90;;;14.80;99.90;;;;;;5038899;28;20089;-66
2022/09/24 10:34:37;;;;;;;1999.90;999.90;;;14.70;99.90;;;;;;5016028;28;20038;-66
2022/09/24 10:37:13;;;;;;;1999.90;999.90;;;14.80;99.90;;;;;;4995676;28;20445;-65
2022/09/24 10:39:39;;;;;;;1999.90;999.90;;;14.80;99.90;;;;;;5029662;28;20860;-65
2022/09/24 10:42:06;;;;;;;1999.90;999.90;;;14.90;99.90;;;;;;5036851;28;20113;-66
2022/09/24 10:44:36;;;;;;;1999.90;999.90;;;14.90;99.90;;;;;;5028358;28;20049;-66
2022/09/24 10:47:25;;;;;;;1999.90;999.90;;;14.90;99.90;;;;;;5023701;28;20049;-65
2022/09/24 10:49:58;;;;;;;1999.90;999.90;;;14.90;99.90;;;;;;5012010;28;20154;-65
2022/09/24 10:52:45;;;;;;;1999.90;999.90;;;14.90;99.90;;;;;;5015868;28;20036;-65
2022/09/24 10:55:29;;;;;;;1999.90;999.90;;;14.90;99.90;;;;;;5014626;28;20577;-65
2022/09/24 10:58:30;;;;;;;1999.90;999.90;;;14.90;99.90;;;;;;5014192;28;20045;-65
2022/09/24 11:01:16;;;;;;;1999.90;999.90;;;14.80;99.90;;;;;;5018798;28;20406;-65
2022/09/24 11:04:24;;;;;;;1999.90;999.90;;;14.80;99.90;;;;;;5021600;28;20042;-65
2022/09/24 11:07:07;;;;;;;1999.90;999.90;;;14.70;99.90;;;;;;5036061;28;20041;-65
2022/09/24 11:09:54;;;;;;;1999.90;999.90;;;14.70;99.90;;;;;;5016013;28;20064;-66
2022/09/24 11:12:47;;;;;;;1999.90;999.90;;;14.70;99.90;;;;;;5024430;28;20049;-65
2022/09/24 11:15:45;;;;;;;1999.90;999.90;;;14.70;99.90;;;;;;5009628;28;20054;-66
2022/09/24 11:18:24;;;;;;;1999.90;999.90;;;14.70;99.90;;;;;;5004024;28;20056;-66
2022/09/24 11:20:54;;;;;;;1999.90;999.90;;;14.70;99.90;;;;;;5026603;28;20048;-65
2022/09/24 11:23:19;;;;;;;1999.90;999.90;;;14.70;99.90;;;;;;5028544;28;20477;-66
2022/09/24 11:25:57;;;;;;;1999.90;999.90;;;14.70;99.90;;;;;;5022328;28;20073;-65
2022/09/24 11:28:49;;;;;;;1999.90;999.90;;;14.60;99.90;;;;;;5030726;28;20049;-65
2022/09/24 11:31:38;;;;;;;1999.90;999.90;;;14.60;99.90;;;;;;5022972;28;20049;-66
2022/09/24 11:34:37;;;;;;;1999.90;999.90;;;14.60;99.90;;;;;;5019922;28;20045;-65
2022/09/24 11:37:25;;;;;;;1999.90;999.90;;;14.50;99.90;;;;;;5016001;28;20037;-65
2022/09/24 11:40:43;;;;;;;1999.90;999.90;;;14.50;99.90;;;;;;5015297;28;20041;-65
2022/09/24 11:43:39;;;;;;;1999.90;999.90;;;14.40;99.90;;;;;;5002199;28;20049;-65
2022/09/24 11:46:14;;;;;;;1999.90;999.90;;;14.30;99.90;;;;;;5026706;28;20037;-65
2022/09/24 11:48:50;;;;;;;1999.90;999.90;;;14.30;99.90;;;;;;5040349;28;20052;-65
2022/09/24 11:51:52;;;;;;;1999.90;999.90;;;14.20;99.90;;;;;;5025801;28;20077;-65
2022/09/24 11:54:32;;;;;;;1999.90;999.90;;;14.30;99.90;;;;;;5019885;28;20037;-65
2022/09/24 11:57:28;;;;;;;1999.90;999.90;;;14.40;99.90;;;;;;5045013;28;20037;-65
2022/09/24 12:00:06;;;;;;;1999.90;999.90;;;14.50;99.90;;;;;;4996377;28;20100;-65
2022/09/24 12:02:46;;;;;;;1999.90;999.90;;;14.70;99.90;;;;;;4998748;28;20054;-65
2022/09/24 12:05:33;;;;;;;1999.90;999.90;;;14.90;99.90;;;;;;4963017;28;20066;-66
2022/09/24 12:08:06;;;;;;;1999.90;999.90;;;15.10;99.90;;;;;;5000705;28;20573;-66
2022/09/24 12:10:46;;;;;;;1999.90;999.90;;;15.30;99.90;;;;;;4996104;28;20511;-65
2022/09/24 12:13:18;;;;;;;1999.90;999.90;;;15.40;99.90;;;;;;4988534;28;20041;-66
2022/09/24 12:16:03;;;;;;;1999.90;999.90;;;15.40;99.90;;;;;;4972931;28;20042;-66
2022/09/24 12:18:54;;;;;;;1999.90;999.90;;;15.40;99.90;;;;;;4980612;28;20785;-66
2022/09/24 12:21:33;;;;;;;1999.90;999.90;;;15.40;99.90;;;;;;4959403;28;20129;-65
2022/09/24 12:24:03;;;;;;;1999.90;999.90;;;15.30;99.90;;;;;;4984622;28;20132;-65
2022/09/24 12:26:34;;;;;;;1999.90;999.90;;;15.30;99.90;;;;;;4991627;28;20924;-65
2022/09/24 12:35:17;;;;;;;1999.90;999.90;;;15.30;99.90;;;;;;4989825;28;20050;-65